JST518 YMLT-YMAV
Flight info
| Callsign | JST518 |
|---|---|
| Flight time | 0h 44m |
| Altitude | 28000 |
| Route | IRSOM DCT DIPLO DCT TAITE DCT AV2SB |
| Aircraft | A321/M-SDE3FGHIRWY/LB1 |
Departure
| Time | 2026-04-20 22:19 |
|---|---|
| Airport | Launceston Airport (YMLT) |
Arrival
| Time | 2026-04-20 23:04 |
|---|---|
| Airport | Melbourne Avalon International Airport (YMAV) |
| Time | Latitude | Longitude | Altitude | Speed | Heading |
|---|---|---|---|---|---|
| 2026-04-20 22:13 | -41.54361 | 147.20735 | 583 ft | 3 kts | 7° |
| 2026-04-20 22:14 | -41.54354 | 147.20772 | 584 ft | 6 kts | 121° |
| 2026-04-20 22:14 | -41.54389 | 147.20807 | 584 ft | 7 kts | 145° |
| 2026-04-20 22:14 | -41.54431 | 147.20843 | 584 ft | 8 kts | 148° |
| 2026-04-20 22:14 | -41.54469 | 147.20876 | 586 ft | 6 kts | 147° |
| 2026-04-20 22:15 | -41.54492 | 147.20896 | 588 ft | 4 kts | 145° |
| 2026-04-20 22:15 | -41.54534 | 147.20935 | 590 ft | 12 kts | 147° |
| 2026-04-20 22:15 | -41.54627 | 147.21011 | 588 ft | 18 kts | 149° |
| 2026-04-20 22:15 | -41.54735 | 147.21103 | 587 ft | 19 kts | 147° |
| 2026-04-20 22:16 | -41.54854 | 147.21203 | 583 ft | 21 kts | 147° |
| 2026-04-20 22:16 | -41.54974 | 147.21308 | 584 ft | 20 kts | 147° |
| 2026-04-20 22:16 | -41.55086 | 147.21403 | 583 ft | 13 kts | 147° |
| 2026-04-20 22:16 | -41.55161 | 147.21468 | 586 ft | 12 kts | 147° |
| 2026-04-20 22:17 | -41.55208 | 147.21514 | 587 ft | 0 kts | 135° |
| 2026-04-20 22:17 | -41.55209 | 147.21517 | 587 ft | 2 kts | 135° |
| 2026-04-20 22:18 | -41.55224 | 147.21547 | 588 ft | 7 kts | 116° |
| 2026-04-20 22:18 | -41.55225 | 147.21622 | 589 ft | 8 kts | 75° |
| 2026-04-20 22:18 | -41.55199 | 147.21683 | 591 ft | 7 kts | 56° |
| 2026-04-20 22:18 | -41.55176 | 147.21676 | 592 ft | 3 kts | 327° |
| 2026-04-20 22:19 | -41.55132 | 147.21639 | 592 ft | 24 kts | 328° |
| 2026-04-20 22:19 | -41.54736 | 147.21300 | 590 ft | 107 kts | 327° |
| 2026-04-20 22:19 | -41.53933 | 147.20608 | 654 ft | 161 kts | 327° |
| 2026-04-20 22:19 | -41.53012 | 147.19813 | 1475 ft | 156 kts | 326° |
| 2026-04-20 22:20 | -41.52310 | 147.18727 | 2313 ft | 159 kts | 292° |
| 2026-04-20 22:20 | -41.52102 | 147.17184 | 2846 ft | 182 kts | 279° |
| 2026-04-20 22:20 | -41.51741 | 147.15461 | 3359 ft | 205 kts | 299° |
| 2026-04-20 22:20 | -41.50894 | 147.13808 | 3855 ft | 226 kts | 305° |
| 2026-04-20 22:21 | -41.49987 | 147.12015 | 4584 ft | 243 kts | 304° |
| 2026-04-20 22:21 | -41.49017 | 147.10039 | 5331 ft | 263 kts | 304° |
| 2026-04-20 22:21 | -41.48012 | 147.07958 | 6340 ft | 269 kts | 304° |
| 2026-04-20 22:21 | -41.47001 | 147.05842 | 7374 ft | 272 kts | 304° |
| 2026-04-20 22:22 | -41.45979 | 147.03694 | 8122 ft | 277 kts | 303° |
| 2026-04-20 22:22 | -41.44944 | 147.01515 | 8757 ft | 281 kts | 303° |
| 2026-04-20 22:22 | -41.43892 | 146.99303 | 9407 ft | 284 kts | 303° |
| 2026-04-20 22:22 | -41.42824 | 146.97062 | 10066 ft | 289 kts | 302° |
| 2026-04-20 22:23 | -41.41738 | 146.94782 | 10653 ft | 295 kts | 302° |
| 2026-04-20 22:23 | -41.40602 | 146.92395 | 10810 ft | 316 kts | 302° |
| 2026-04-20 22:23 | -41.39384 | 146.89840 | 10955 ft | 337 kts | 302° |
| 2026-04-20 22:23 | -41.38103 | 146.87163 | 11328 ft | 347 kts | 302° |
| 2026-04-20 22:24 | -41.36815 | 146.84477 | 11896 ft | 351 kts | 302° |
| 2026-04-20 22:24 | -41.35496 | 146.81730 | 12489 ft | 354 kts | 301° |
| 2026-04-20 22:24 | -41.34149 | 146.78919 | 13098 ft | 357 kts | 301° |
| 2026-04-20 22:24 | -41.32806 | 146.76123 | 13696 ft | 360 kts | 301° |
| 2026-04-20 22:25 | -41.31448 | 146.73303 | 14295 ft | 364 kts | 301° |
| 2026-04-20 22:25 | -41.30094 | 146.70498 | 14819 ft | 367 kts | 301° |
| 2026-04-20 22:25 | -41.28712 | 146.67638 | 15358 ft | 370 kts | 301° |
| 2026-04-20 22:25 | -41.27298 | 146.64709 | 15899 ft | 373 kts | 301° |
| 2026-04-20 22:26 | -41.25911 | 146.61833 | 16441 ft | 376 kts | 301° |
| 2026-04-20 22:26 | -41.24493 | 146.58895 | 16976 ft | 379 kts | 301° |
| 2026-04-20 22:26 | -41.23064 | 146.55934 | 17513 ft | 382 kts | 300° |
| 2026-04-20 22:27 | -41.20166 | 146.49945 | 18555 ft | 389 kts | 300° |
| 2026-04-20 22:27 | -41.18670 | 146.46938 | 19032 ft | 393 kts | 304° |
| 2026-04-20 22:27 | -41.16838 | 146.44219 | 19481 ft | 398 kts | 315° |
| 2026-04-20 22:27 | -41.14626 | 146.41972 | 19938 ft | 404 kts | 326° |
| 2026-04-20 22:28 | -41.12123 | 146.40230 | 20371 ft | 408 kts | 332° |
| 2026-04-20 22:28 | -41.09562 | 146.38575 | 20846 ft | 411 kts | 332° |
| 2026-04-20 22:28 | -41.06989 | 146.36902 | 21314 ft | 413 kts | 331° |
| 2026-04-20 22:28 | -41.04402 | 146.35213 | 21777 ft | 416 kts | 331° |
| 2026-04-20 22:29 | -41.01800 | 146.33509 | 22225 ft | 418 kts | 331° |
| 2026-04-20 22:29 | -40.99189 | 146.31798 | 22666 ft | 421 kts | 331° |
| 2026-04-20 22:29 | -40.96555 | 146.30080 | 23089 ft | 423 kts | 331° |
| 2026-04-20 22:29 | -40.93902 | 146.28358 | 23507 ft | 426 kts | 331° |
| 2026-04-20 22:30 | -40.91234 | 146.26627 | 23919 ft | 428 kts | 331° |
| 2026-04-20 22:30 | -40.88550 | 146.24893 | 24279 ft | 431 kts | 331° |
| 2026-04-20 22:30 | -40.85850 | 146.23150 | 24606 ft | 433 kts | 331° |
| 2026-04-20 22:30 | -40.83136 | 146.21398 | 24943 ft | 435 kts | 331° |
| 2026-04-20 22:31 | -40.80411 | 146.19634 | 25284 ft | 437 kts | 331° |
| 2026-04-20 22:31 | -40.77675 | 146.17864 | 25610 ft | 439 kts | 331° |
| 2026-04-20 22:31 | -40.74927 | 146.16088 | 25944 ft | 441 kts | 331° |
| 2026-04-20 22:31 | -40.72168 | 146.14304 | 26283 ft | 442 kts | 331° |
| 2026-04-20 22:32 | -40.69401 | 146.12515 | 26619 ft | 444 kts | 331° |
| 2026-04-20 22:32 | -40.66621 | 146.10724 | 26947 ft | 446 kts | 331° |
| 2026-04-20 22:32 | -40.63828 | 146.08929 | 27256 ft | 448 kts | 331° |
| 2026-04-20 22:32 | -40.61021 | 146.07124 | 27550 ft | 450 kts | 331° |
| 2026-04-20 22:33 | -40.58207 | 146.05315 | 27856 ft | 452 kts | 331° |
| 2026-04-20 22:33 | -40.55373 | 146.03498 | 28163 ft | 454 kts | 331° |
| 2026-04-20 22:33 | -40.52526 | 146.01676 | 28404 ft | 456 kts | 331° |
| 2026-04-20 22:33 | -40.49696 | 145.99864 | 28460 ft | 446 kts | 331° |
| 2026-04-20 22:34 | -40.44199 | 145.96360 | 28455 ft | 436 kts | 332° |
| 2026-04-20 22:34 | -40.38748 | 145.92888 | 28456 ft | 435 kts | 331° |
| 2026-04-20 22:35 | -40.33290 | 145.89416 | 28453 ft | 436 kts | 331° |
| 2026-04-20 22:35 | -40.27829 | 145.85945 | 28450 ft | 436 kts | 331° |
| 2026-04-20 22:36 | -40.22370 | 145.82471 | 28454 ft | 436 kts | 331° |
| 2026-04-20 22:36 | -40.16915 | 145.79009 | 28455 ft | 436 kts | 332° |
| 2026-04-20 22:37 | -40.11446 | 145.75564 | 28442 ft | 436 kts | 332° |
| 2026-04-20 22:37 | -40.06009 | 145.72137 | 28435 ft | 437 kts | 331° |
| 2026-04-20 22:38 | -40.00541 | 145.68678 | 28440 ft | 436 kts | 329° |
| 2026-04-20 22:38 | -39.95431 | 145.64496 | 28429 ft | 434 kts | 324° |
| 2026-04-20 22:39 | -39.90363 | 145.60223 | 28441 ft | 434 kts | 324° |
| 2026-04-20 22:39 | -39.85283 | 145.55974 | 28426 ft | 434 kts | 324° |
| 2026-04-20 22:40 | -39.81053 | 145.52444 | 28425 ft | 434 kts | 324° |
| 2026-04-20 22:40 | -39.75967 | 145.48195 | 28417 ft | 434 kts | 324° |
| 2026-04-20 22:41 | -39.70878 | 145.43953 | 28413 ft | 435 kts | 324° |
| 2026-04-20 22:41 | -39.65794 | 145.39718 | 28416 ft | 435 kts | 324° |
| 2026-04-20 22:42 | -39.60703 | 145.35483 | 28408 ft | 435 kts | 324° |
| 2026-04-20 22:42 | -39.55609 | 145.31262 | 28412 ft | 434 kts | 324° |
| 2026-04-20 22:43 | -39.53075 | 145.29168 | 28051 ft | 431 kts | 325° |
| 2026-04-20 22:43 | -39.50557 | 145.27090 | 27566 ft | 426 kts | 324° |
| 2026-04-20 22:43 | -39.48063 | 145.25034 | 27075 ft | 423 kts | 324° |
| 2026-04-20 22:43 | -39.45596 | 145.22997 | 26649 ft | 418 kts | 324° |
| 2026-04-20 22:44 | -39.43155 | 145.20978 | 26206 ft | 414 kts | 324° |
| 2026-04-20 22:44 | -39.40735 | 145.18979 | 25787 ft | 411 kts | 324° |
| 2026-04-20 22:44 | -39.38331 | 145.16991 | 25350 ft | 409 kts | 324° |
| 2026-04-20 22:44 | -39.35939 | 145.15016 | 24910 ft | 407 kts | 325° |
| 2026-04-20 22:45 | -39.33558 | 145.13055 | 24459 ft | 406 kts | 324° |
| 2026-04-20 22:45 | -39.31175 | 145.11097 | 24020 ft | 406 kts | 325° |
| 2026-04-20 22:45 | -39.28795 | 145.09143 | 23496 ft | 405 kts | 324° |
| 2026-04-20 22:45 | -39.26429 | 145.07201 | 23048 ft | 402 kts | 324° |
| 2026-04-20 22:46 | -39.24078 | 145.05274 | 22581 ft | 399 kts | 324° |
| 2026-04-20 22:46 | -39.21741 | 145.03362 | 22120 ft | 396 kts | 324° |
| 2026-04-20 22:46 | -39.19417 | 145.01466 | 21654 ft | 394 kts | 325° |
| 2026-04-20 22:46 | -39.17107 | 144.99583 | 21192 ft | 391 kts | 325° |
| 2026-04-20 22:47 | -39.14814 | 144.97713 | 20738 ft | 389 kts | 325° |
| 2026-04-20 22:47 | -39.12534 | 144.95855 | 20277 ft | 387 kts | 324° |
| 2026-04-20 22:47 | -39.10265 | 144.94001 | 19738 ft | 387 kts | 324° |
| 2026-04-20 22:47 | -39.08010 | 144.92159 | 19372 ft | 382 kts | 324° |
| 2026-04-20 22:48 | -39.05774 | 144.90336 | 18905 ft | 380 kts | 324° |
| 2026-04-20 22:48 | -39.03544 | 144.88522 | 18433 ft | 378 kts | 324° |
| 2026-04-20 22:48 | -39.01328 | 144.86720 | 17976 ft | 375 kts | 325° |
| 2026-04-20 22:48 | -38.99138 | 144.84938 | 17528 ft | 371 kts | 324° |
| 2026-04-20 22:49 | -38.96967 | 144.83168 | 17088 ft | 368 kts | 326° |
| 2026-04-20 22:49 | -38.94816 | 144.81416 | 16645 ft | 364 kts | 324° |
| 2026-04-20 22:49 | -38.92683 | 144.79684 | 16212 ft | 361 kts | 325° |
| 2026-04-20 22:49 | -38.90567 | 144.77969 | 15781 ft | 358 kts | 324° |
| 2026-04-20 22:50 | -38.88469 | 144.76274 | 15358 ft | 355 kts | 326° |
| 2026-04-20 22:50 | -38.86386 | 144.74589 | 14932 ft | 353 kts | 326° |
| 2026-04-20 22:50 | -38.84321 | 144.72915 | 14512 ft | 350 kts | 326° |
| 2026-04-20 22:50 | -38.82270 | 144.71255 | 14070 ft | 347 kts | 325° |
| 2026-04-20 22:51 | -38.80260 | 144.69634 | 13660 ft | 344 kts | 326° |
| 2026-04-20 22:51 | -38.78244 | 144.68011 | 13250 ft | 340 kts | 326° |
| 2026-04-20 22:51 | -38.76250 | 144.66406 | 12850 ft | 337 kts | 327° |
| 2026-04-20 22:51 | -38.74278 | 144.64819 | 12443 ft | 333 kts | 326° |
| 2026-04-20 22:52 | -38.72324 | 144.63247 | 12047 ft | 330 kts | 326° |
| 2026-04-20 22:52 | -38.70392 | 144.61688 | 11701 ft | 325 kts | 326° |
| 2026-04-20 22:52 | -38.68518 | 144.60174 | 11573 ft | 313 kts | 326° |
| 2026-04-20 22:52 | -38.66700 | 144.58710 | 11364 ft | 306 kts | 326° |
| 2026-04-20 22:53 | -38.64913 | 144.57275 | 10996 ft | 300 kts | 326° |
| 2026-04-20 22:53 | -38.63160 | 144.55869 | 10306 ft | 296 kts | 326° |
| 2026-04-20 22:53 | -38.61430 | 144.54483 | 9574 ft | 291 kts | 326° |
| 2026-04-20 22:53 | -38.59738 | 144.53125 | 9038 ft | 284 kts | 327° |
| 2026-04-20 22:54 | -38.58077 | 144.51795 | 8753 ft | 280 kts | 326° |
| 2026-04-20 22:54 | -38.56438 | 144.50483 | 8422 ft | 277 kts | 327° |
| 2026-04-20 22:54 | -38.54810 | 144.49180 | 8087 ft | 275 kts | 327° |
| 2026-04-20 22:54 | -38.53154 | 144.47974 | 7753 ft | 273 kts | 336° |
| 2026-04-20 22:55 | -38.51346 | 144.47259 | 7433 ft | 272 kts | 349° |
| 2026-04-20 22:55 | -38.49475 | 144.47001 | 7119 ft | 270 kts | 354° |
| 2026-04-20 22:55 | -38.47613 | 144.46787 | 6801 ft | 268 kts | 354° |
| 2026-04-20 22:55 | -38.45765 | 144.46570 | 6467 ft | 266 kts | 354° |
| 2026-04-20 22:56 | -38.43934 | 144.46351 | 6149 ft | 263 kts | 353° |
| 2026-04-20 22:56 | -38.42124 | 144.46135 | 5843 ft | 260 kts | 353° |
| 2026-04-20 22:56 | -38.40328 | 144.45920 | 5528 ft | 258 kts | 353° |
| 2026-04-20 22:56 | -38.38548 | 144.45706 | 5222 ft | 256 kts | 353° |
| 2026-04-20 22:57 | -38.36785 | 144.45494 | 4894 ft | 253 kts | 353° |
| 2026-04-20 22:57 | -38.35041 | 144.45287 | 4591 ft | 251 kts | 353° |
| 2026-04-20 22:57 | -38.33310 | 144.45081 | 4282 ft | 249 kts | 354° |
| 2026-04-20 22:57 | -38.31598 | 144.44880 | 3985 ft | 246 kts | 354° |
| 2026-04-20 22:58 | -38.29909 | 144.44681 | 3683 ft | 239 kts | 354° |
| 2026-04-20 22:58 | -38.28318 | 144.44495 | 3437 ft | 225 kts | 354° |
| 2026-04-20 22:58 | -38.26770 | 144.44310 | 3137 ft | 221 kts | 354° |
| 2026-04-20 22:58 | -38.25259 | 144.44128 | 2860 ft | 215 kts | 355° |
| 2026-04-20 22:59 | -38.23791 | 144.43953 | 2637 ft | 209 kts | 355° |
| 2026-04-20 22:59 | -38.22343 | 144.43784 | 2589 ft | 205 kts | 356° |
| 2026-04-20 22:59 | -38.20986 | 144.43851 | 2512 ft | 186 kts | 8° |
| 2026-04-20 22:59 | -38.19764 | 144.44064 | 2419 ft | 169 kts | 8° |
| 2026-04-20 23:00 | -38.18636 | 144.44255 | 2342 ft | 160 kts | 8° |
| 2026-04-20 23:00 | -38.17540 | 144.44441 | 2273 ft | 158 kts | 7° |
| 2026-04-20 23:00 | -38.16468 | 144.44624 | 2209 ft | 157 kts | 7° |
| 2026-04-20 23:00 | -38.15385 | 144.44808 | 2157 ft | 157 kts | 7° |
| 2026-04-20 23:01 | -38.14307 | 144.44989 | 2088 ft | 156 kts | 7° |
| 2026-04-20 23:01 | -38.13222 | 144.45183 | 1896 ft | 157 kts | 8° |
| 2026-04-20 23:01 | -38.12150 | 144.45395 | 1599 ft | 157 kts | 9° |
| 2026-04-20 23:01 | -38.11065 | 144.45555 | 1204 ft | 156 kts | 7° |
| 2026-04-20 23:02 | -38.09990 | 144.45705 | 975 ft | 157 kts | 9° |
| 2026-04-20 23:02 | -38.08914 | 144.45901 | 740 ft | 156 kts | 11° |
| 2026-04-20 23:02 | -38.07838 | 144.46098 | 564 ft | 156 kts | 9° |
| 2026-04-20 23:02 | -38.06760 | 144.46226 | 328 ft | 152 kts | 12° |
| 2026-04-20 23:03 | -38.05702 | 144.46434 | 177 ft | 155 kts | 11° |
| 2026-04-20 23:03 | -38.04682 | 144.46610 | 35 ft | 133 kts | 7° |
| 2026-04-20 23:03 | -38.03930 | 144.46737 | 33 ft | 87 kts | 7° |
| 2026-04-20 23:03 | -38.03463 | 144.46820 | 35 ft | 51 kts | 5° |
| 2026-04-20 23:04 | -38.03165 | 144.46867 | 32 ft | 40 kts | 8° |
| 2026-04-20 23:04 | -38.02908 | 144.46910 | 30 ft | 29 kts | 7° |
| 2026-04-20 23:04 | -38.02756 | 144.46944 | 30 ft | 17 kts | 32° |
| 2026-04-20 23:04 | -38.02740 | 144.47066 | 31 ft | 10 kts | 100° |
| 2026-04-20 23:05 | -38.02741 | 144.47077 | 31 ft | 0 kts | 100° |
| 2026-04-20 23:05 | -38.02743 | 144.47090 | 31 ft | 4 kts | 100° |
| 2026-04-20 23:05 | -38.02770 | 144.47151 | 32 ft | 10 kts | 123° |
| 2026-04-20 23:05 | -38.02788 | 144.47234 | 32 ft | 10 kts | 97° |
| 2026-04-20 23:06 | -38.02795 | 144.47301 | 32 ft | 6 kts | 97° |
| 2026-04-20 23:06 | -38.02801 | 144.47356 | 12 ft | 7 kts | 98° |
| 2026-04-20 23:06 | -38.02803 | 144.47374 | 38 ft | 0 kts | 98° |
| 2026-04-20 23:06 | -38.02803 | 144.47376 | 37 ft | 0 kts | 98° |
| 2026-04-20 23:07 | -38.02803 | 144.47382 | 36 ft | 4 kts | 93° |
| 2026-04-20 23:07 | -38.02805 | 144.47425 | 32 ft | 5 kts | 94° |
| 2026-04-20 23:07 | -38.02806 | 144.47444 | 32 ft | 0 kts | 86° |
| 2026-04-20 23:08 | -38.02805 | 144.47445 | 32 ft | 0 kts | 84° |
| 2026-04-20 23:08 | -38.02797 | 144.47445 | 31 ft | 1 kts | 350° |
| 2026-04-20 23:08 | -38.02795 | 144.47438 | 31 ft | 1 kts | 301° |
| 2026-04-20 23:09 | -38.02795 | 144.47435 | 32 ft | 1 kts | 292° |
| 2026-04-20 23:09 | -38.02791 | 144.47394 | 32 ft | 6 kts | 278° |
| 2026-04-20 23:09 | -38.02759 | 144.47367 | 32 ft | 6 kts | 0° |
| 2026-04-20 23:09 | -38.02738 | 144.47369 | 32 ft | 3 kts | 3° |